Information Last Ob Photographs Meteogram Network Table Neighbors Monthly Summaries Observation History Wind Roses Custom Wind Roses Data Calendar Satellite Cloud Product Download

02 July 2022 Observation History, [EFK] Newport, timezone: America/New_York

Select Date: Time Order:

Show METARs   Show High Frequency MADIS

Previous Day
Time Wind
(mph)
Vis.
(mi.)
Sky Cond.
(100s ft)
Present Wx Temperature (ºF) Relative
Humidity
Pressure Snow
Depth
(in)
Precipitation (in.)
Air Dwpt Feels Like 6 hour altimeter
(in.)
sea level
(mb)
1 hr 3 hr 6 hr
Max.Min.
12:15 AMSSW 310 SCT065
SCT100
666466 92% 29.830
KEFK 020415Z AUTO 21003KT 10SM SCT065 SCT100 19/18 A2983 RMK AO2 T01900176
12:35 AMCalm10 CLR
656365 92% 29.820
KEFK 020435Z AUTO 00000KT 10SM CLR 19/17 A2982 RMK AO2 T01850171
12:55 AMSSW 310 CLR
656365 92% 29.820
KEFK 020455Z AUTO 20003KT 10SM CLR 18/17 A2982 RMK AO2 T01840170 402810162
1:15 AMSSW 310 SCT110
666466 92% 29.820
KEFK 020515Z AUTO 19003KT 10SM SCT110 19/18 A2982 RMK AO2 T01880175
1:35 AMSSW 510 SCT110
666366 91% 29.810
KEFK 020535Z AUTO 21004KT 10SM SCT110 19/17 A2981 RMK AO2 T01870173
1:55 AMSSW 310 SCT085
SCT100
666466 72 65 92% 29.790
KEFK 020555Z AUTO 20003KT 10SM SCT085 SCT100 19/18 A2979 RMK AO2 T01910177 10225 20181
2:15 AMSW 510 SCT065
BKN075
OVC100
666466 92% 29.80
KEFK 020615Z AUTO 22004KT 10SM SCT065 BKN075 OVC100 19/18 A2980 RMK AO2 T01880175
2:35 AMSW 510 OVC065
666366 91% 29.790
KEFK 020635Z AUTO 22004KT 10SM OVC065 19/17 A2979 RMK AO2 T01870173
2:55 AMSSW 510 OVC065
666466 92% 29.790
KEFK 020655Z AUTO 20004KT 10SM OVC065 19/18 A2979 RMK AO2 T01890175
3:15 AMSSW 510 SCT065
OVC070
666466 92% 29.790
KEFK 020715Z AUTO 21004KT 10SM SCT065 OVC070 19/18 A2979 RMK AO2 T01910177
3:35 AMSW 710 OVC070
676467 92% 29.80
KEFK 020735Z AUTO 22006KT 10SM OVC070 19/18 A2980 RMK AO2 T01940180
3:55 AMCalm2 SCT016
BKN044
OVC070
RA666366 91% 29.810
KEFK 020755Z AUTO 00000KT 2SM RA SCT016 BKN044 OVC070 19/17 A2981 RMK AO2 VIS 3/4V5 T01870173
4:15 AMS 510 SCT026
SCT042
OVC110
-RA666366 92% 29.810
KEFK 020815Z AUTO 18004KT 10SM -RA SCT026 SCT042 OVC110 19/17 A2981 RMK AO2 T01860172
4:35 AMSSW 37 SCT034
BKN050
OVC110
RA666366 92% 29.820
KEFK 020835Z AUTO 20003KT 7SM RA SCT034 BKN050 OVC110 19/17 A2982 RMK AO2 T01860172
4:55 AMSSW 67 SCT031
BKN060
OVC100
RA666466 92% 29.830
KEFK 020855Z AUTO 21005KT 7SM RA SCT031 BKN060 OVC100 19/18 A2983 RMK AO2 T01890175
5:15 AMSW 37 SCT060
SCT070
OVC100
-RA666366 91% 29.830
KEFK 020915Z AUTO 23003KT 7SM -RA SCT060 SCT070 OVC100 19/17 A2983 RMK AO2 T01870173
5:35 AMS 610 OVC100
-RA656365 92% 29.820
KEFK 020935Z AUTO 17005KT 10SM -RA OVC100 19/17 A2982 RMK AO2 T01850171
5:55 AMSW 310 BKN110
656365 92% 29.820
KEFK 020955Z AUTO 22003KT 10SM BKN110 19/17 A2982 RMK AO2 T01850171
6:15 AMCalm10 SCT033
SCT039
SCT110
656265 91% 29.820
KEFK 021015Z AUTO 00000KT 10SM SCT033 SCT039 SCT110 18/17 A2982 RMK AO2 T01810166
6:35 AMSSW 310 SCT029
SCT037
SCT095
656265 92% 29.820
KEFK 021035Z AUTO 20003KT 10SM SCT029 SCT037 SCT095 18/17 A2982 RMK AO2 T01830169
6:55 AMSSW 310 SCT029
656265 91% 29.830
KEFK 021055Z AUTO 19003KT 10SM SCT029 18/17 A2983 RMK AO2 T01820168
7:15 AMSSW 510 SCT024
SCT029
SCT120
656365 92% 29.830
KEFK 021115Z AUTO 19004KT 10SM SCT024 SCT029 SCT120 18/17 A2983 RMK AO2 T01840170
7:35 AMSSW 310 BKN024
BKN090
656365 91% 29.840
KEFK 021135Z AUTO 19003KT 10SM BKN024 BKN090 19/17 A2984 RMK AO2 T01850170
7:55 AMSSW 510 BKN024
BKN029
OVC045
666466 67 64 92% 29.840
KEFK 021155Z AUTO 19004KT 10SM BKN024 BKN029 OVC045 19/18 A2984 RMK AO2 T01880175 10195 20178
8:15 AMS 610 SCT027
BKN090
BKN100
696769 91% 29.840
KEFK 021215Z AUTO 18005KT 10SM SCT027 BKN090 BKN100 21/19 A2984 RMK AO2 T02070192
8:35 AMS 510 SCT029
BKN090
706870 92% 29.840
KEFK 021235Z AUTO 18004KT 10SM SCT029 BKN090 21/20 A2984 RMK AO2 T02140200
8:55 AMSSE 510 BKN027
BKN036
OVC055
716871 92% 29.840
KEFK 021255Z AUTO 16004KT 10SM BKN027 BKN036 OVC055 22/20 A2984 RMK AO2 T02160202
9:15 AMSSW 510 BKN025
OVC030
716871 91% 29.840
KEFK 021315Z AUTO 21004KT 10SM BKN025 OVC030 22/20 A2984 RMK AO2 T02170202
9:35 AMNW 510 OVC027
706870 92% 29.840
KEFK 021335Z AUTO 31004KT 10SM OVC027 21/20 A2984 RMK AO2 T02110198
9:55 AMW 14G 1710 BKN025
BKN030
BKN036
706870 92% 29.840
KEFK 021355Z AUTO 26012G15KT 10SM BKN025 BKN030 BKN036 21/20 A2984 RMK AO2 T02130200
10:15 AMW 13G 1710 SCT025
SCT030
BKN049
736273 70% 29.850
KEFK 021415Z AUTO 27011G15KT 10SM SCT025 SCT030 BKN049 23/17 A2985 RMK AO2 T02260168
10:35 AMW 14G 2110 SCT049
SCT055
SCT065
725572 55% 29.860
KEFK 021435Z AUTO 26012G18KT 10SM SCT049 SCT055 SCT065 22/13 A2986 RMK AO2 T02220128
10:55 AMWSW 17G 2610 CLR
725472 53% 29.870
KEFK 021455Z AUTO 25015G23KT 10SM CLR 22/12 A2987 RMK AO2 T02220122
11:15 AMWSW 15G 2210 CLR
725472 52% 29.870
KEFK 021515Z AUTO 25013G19KT 10SM CLR 23/12 A2987 RMK AO2 T02250121
11:35 AMWSW 16G 2310 CLR
735373 49% 29.860
KEFK 021535Z AUTO 25014G20KT 10SM CLR 23/12 A2986 RMK AO2 T02270115
11:55 AMW 18G 2910 SCT045
735273 47% 29.870
KEFK 021555Z AUTO 26016G25KT 10SM SCT045 23/11 A2987 RMK AO2 T02290110
12:15 PMW 16G 2410 SCT049
735173 45% 29.870
KEFK 021615Z AUTO 27014G21KT 10SM SCT049 23/10 A2987 RMK AO2 T02300104
12:35 PMWSW 1310 CLR
745174 46% 29.870
KEFK 021635Z AUTO 25011KT 220V280 10SM CLR 23/11 A2987 RMK AO2 T02310107
12:55 PMWSW 15G 2010 CLR
745174 45% 29.870
KEFK 021655Z AUTO 25013G17KT 10SM CLR 24/11 A2987 RMK AO2 T02350108
1:15 PMW 10G 1710 SCT050
745174 45% 29.870
KEFK 021715Z AUTO 27009G15KT 10SM SCT050 24/11 A2987 RMK AO2 T02350108
1:35 PMWSW 10G 2310 SCT050
744974 41% 29.870
KEFK 021735Z AUTO 24009G20KT 10SM SCT050 24/09 A2987 RMK AO2 T02350094

The IEM API webservice that provided data to this page. For more details, see documentation.

Data Notes

  • For recent years, this page also optionally shows observations from the MADIS High Frequency METAR dataset. This dataset had a problem with temperatures detailed here.